Clearview, Texas
Current Conditions -  °F | °C
As of 11:55 AM on Tuesday 21 Oct 2014 (Local Time) from KGYB Reporting Station
Clear Clear  
Wind Chill: 75°   Ceiling: Unl
Heat Index: 75°   Visibility: 10mi
Dew Point: 56°   Wind: 6mph
Humidity: 50%   Direction: 50°NE
Pressure: 30.12"   Gusts: NA
Location:  30.1644°N, 97.2747°W
Report Text: KGYB 211655Z AUTO 05005KT 10SM CLR 24/13 A3012 RMK AO2 T02400131
Loading
Personal Weather Stations






























Interactive Weather Map
Tropical Storm Tracking
New forecast layout! Learn more

10-Day Weather Forecast

Advertisements
Track Severe Weather on mobile